Time;durP1;ratioP1;P1;durP2;ratioP2;P2;SDS_P1;SDS_P2;PMS_P1;PMS_P2;Temp;Humidity;BMP_temperature;BMP_pressure;BME280_temperature;BME280_humidity;BME280_pressure;Samples;Min_cycle;Max_cycle;Signal;HPM_P1;HPM_P2
2021/08/04 00:00:00;;;;;;;4.00;3.70;;;;;;;23.96;72.67;101152.78;4987066;28;102615;-56
2021/08/04 00:02:28;;;;;;;4.15;3.85;;;;;;;23.95;72.56;101160.31;4989328;28;102029;-57
2021/08/04 00:04:55;;;;;;;4.25;3.95;;;;;;;23.94;72.75;101155.88;4988998;28;102663;-57
2021/08/04 00:07:21;;;;;;;4.25;3.95;;;;;;;23.95;72.59;101165.06;4985960;28;103962;-57
2021/08/04 00:09:48;;;;;;;4.50;4.10;;;;;;;23.96;72.73;101163.91;4986963;28;102987;-57
2021/08/04 00:12:15;;;;;;;4.32;3.92;;;;;;;23.95;72.61;101162.28;4987057;28;102741;-57
2021/08/04 00:14:42;;;;;;;4.20;3.80;;;;;;;23.94;72.83;101160.63;4988967;28;102726;-57
2021/08/04 00:17:09;;;;;;;4.78;3.85;;;;;;;23.94;72.72;101166.19;4987358;28;104190;-57
2021/08/04 00:19:37;;;;;;;3.95;3.65;;;;;;;23.94;72.72;101171.75;4982014;28;103507;-57
2021/08/04 00:22:04;;;;;;;3.83;3.53;;;;;;;23.93;72.93;101154.28;4988637;28;102361;-57
2021/08/04 00:24:30;;;;;;;4.10;3.80;;;;;;;23.94;72.51;101163.41;4987761;28;102206;-57
2021/08/04 00:26:57;;;;;;;3.90;3.60;;;;;;;23.93;72.64;101154.28;4989159;28;103738;-57
2021/08/04 00:29:24;;;;;;;3.60;3.40;;;;;;;23.94;72.72;101155.09;4984807;28;102058;-57
2021/08/04 00:31:51;;;;;;;4.00;3.70;;;;;;;23.95;72.72;101156.72;4989361;28;102534;-57
2021/08/04 00:34:18;;;;;;;4.20;3.90;;;;;;;23.94;72.39;101155.09;4987870;28;102473;-57
2021/08/04 00:36:46;;;;;;;5.47;3.38;;;;;;;23.95;72.64;101151.16;4986942;28;103709;-57
2021/08/04 00:39:12;;;;;;;4.32;4.00;;;;;;;23.94;72.70;101155.09;4971412;28;103473;-60
2021/08/04 00:41:42;;;;;;;3.88;3.55;;;;;;;23.94;72.77;101144.78;4986404;28;102334;-57
2021/08/04 00:44:08;;;;;;;3.85;3.55;;;;;;;23.94;72.88;101160.63;4980484;28;102497;-57
2021/08/04 00:46:39;;;;;;;4.20;3.80;;;;;;;23.95;72.79;101151.97;4985879;28;104182;-57
2021/08/04 00:49:06;;;;;;;3.95;3.42;;;;;;;23.94;72.64;101157.88;4988616;28;102701;-57
2021/08/04 00:51:33;;;;;;;4.13;3.83;;;;;;;23.93;72.50;101165.41;4986291;28;102336;-57
2021/08/04 00:54:04;;;;;;;3.70;3.40;;;;;;;23.93;72.72;101156.25;4989805;28;102499;-57
2021/08/04 00:56:31;;;;;;;4.35;3.95;;;;;;;23.93;72.66;101159.84;4987337;28;104074;-57
2021/08/04 00:58:58;;;;;;;3.90;3.60;;;;;;;23.93;72.60;101159.03;4981931;28;102482;-57
2021/08/04 01:01:28;;;;;;;4.00;3.60;;;;;;;23.93;72.51;101156.25;4985307;28;102659;-57
2021/08/04 01:03:59;;;;;;;3.90;3.60;;;;;;;23.93;72.54;101162.63;4986332;28;103655;-57
2021/08/04 01:06:34;;;;;;;5.57;3.65;;;;;;;23.93;72.60;101165.41;4985154;28;104204;-57
2021/08/04 01:09:01;;;;;;;3.58;3.28;;;;;;;23.92;72.63;101166.56;4994538;28;102377;-57
2021/08/04 01:11:33;;;;;;;3.83;3.53;;;;;;;23.94;72.76;101160.63;4984906;28;102437;-57
2021/08/04 01:14:04;;;;;;;4.22;3.92;;;;;;;23.93;72.54;101170.16;4984063;28;102378;-57
2021/08/04 01:16:33;;;;;;;3.83;3.53;;;;;;;23.92;72.56;101171.31;4987494;28;103959;-57
2021/08/04 01:19:21;;;;;;;3.70;3.40;;;;;;;23.92;72.56;101176.88;4986091;28;102426;-57
2021/08/04 01:21:56;;;;;;;4.80;3.72;;;;;;;23.92;72.77;101174.09;4981495;28;102583;-57
2021/08/04 01:24:25;;;;;;;4.13;3.75;;;;;;;23.91;72.62;101164.97;4989145;28;102477;-57
2021/08/04 01:26:55;;;;;;;3.80;3.50;;;;;;;23.91;72.56;101167.75;4990930;28;104222;-57
2021/08/04 01:29:24;;;;;;;3.90;3.60;;;;;;;23.92;72.81;101168.53;4984410;28;103620;-57
2021/08/04 01:31:55;;;;;;;3.60;3.30;;;;;;;23.92;72.62;101163.78;5001610;28;102067;-57
2021/08/04 01:34:24;;;;;;;3.63;3.30;;;;;;;23.92;72.65;101165.75;4996867;28;102147;-57
2021/08/04 01:36:52;;;;;;;5.40;3.27;;;;;;;23.91;72.54;101161.34;4990915;28;102983;-57
2021/08/04 01:39:21;;;;;;;3.47;3.25;;;;;;;23.90;72.33;101165.28;4998873;28;102331;-58
2021/08/04 01:41:51;;;;;;;3.63;3.33;;;;;;;23.92;72.55;101171.31;4992177;28;102111;-57
2021/08/04 01:44:20;;;;;;;3.70;3.40;;;;;;;23.90;72.45;101156.94;4994682;28;102134;-58
2021/08/04 01:46:48;;;;;;;3.67;3.38;;;;;;;23.90;72.69;101159.72;4993558;28;104047;-57
2021/08/04 01:49:16;;;;;;;3.25;3.00;;;;;;;23.91;72.64;101155.78;4992910;28;102436;-57
2021/08/04 01:51:47;;;;;;;3.43;3.13;;;;;;;23.91;72.68;101155.78;4994842;28;102628;-57
2021/08/04 01:54:16;;;;;;;3.50;3.22;;;;;;;23.91;72.60;101161.34;4995032;28;102619;-57
2021/08/04 01:56:44;;;;;;;;;;;;;;;23.90;72.60;101156.94;4989833;28;102964;-57
2021/08/04 01:59:11;;;;;;;3.75;3.45;;;;;;;23.90;72.35;101165.28;4987664;28;102092;-57
2021/08/04 02:01:39;;;;;;;3.63;3.33;;;;;;;23.90;72.61;101165.28;4989298;28;102443;-57
2021/08/04 02:04:06;;;;;;;4.00;3.63;;;;;;;23.91;72.36;101167.75;4990073;28;102425;-57
2021/08/04 02:06:38;;;;;;;3.78;3.47;;;;;;;23.90;72.76;101166.09;4999307;28;103819;-57
2021/08/04 02:09:10;;;;;;;3.88;3.58;;;;;;;23.90;72.78;101171.66;4987561;28;102754;-56
2021/08/04 02:11:52;;;;;;;3.38;3.17;;;;;;;23.91;72.65;101166.91;4989613;28;102767;-56
2021/08/04 02:14:21;;;;;;;3.28;3.08;;;;;;;23.91;72.51;101161.34;4990089;28;102323;-56
2021/08/04 02:16:57;;;;;;;3.15;2.95;;;;;;;23.89;72.63;101161.72;4984680;28;104583;-57
2021/08/04 02:19:29;;;;;;;5.55;3.45;;;;;;;23.89;72.43;101172.03;4977984;28;102325;-56
2021/08/04 02:22:01;;;;;;;3.47;3.25;;;;;;;23.90;72.75;101176.41;4989386;28;102407;-56
2021/08/04 02:24:31;;;;;;;3.72;3.42;;;;;;;23.88;72.77;101176.78;4990510;28;102379;-56
2021/08/04 02:27:00;;;;;;;3.47;3.22;;;;;;;23.90;72.48;101187.53;4988701;28;103966;-56
2021/08/04 02:29:28;;;;;;;3.70;3.40;;;;;;;23.87;72.63;101183.47;4980957;28;103389;-56
2021/08/04 02:31:57;;;;;;;3.42;3.20;;;;;;;23.88;72.59;101179.56;4987524;28;103342;-56
2021/08/04 02:34:24;;;;;;;3.95;3.50;;;;;;;23.87;72.68;101177.91;4988323;28;102386;-56
2021/08/04 02:36:51;;;;;;;3.72;3.40;;;;;;;23.89;72.63;101183.13;4988704;28;103487;-56
2021/08/04 02:39:17;;;;;;;3.70;3.40;;;;;;;23.88;72.91;101185.09;4989109;28;102174;-56
2021/08/04 02:41:45;;;;;;;4.00;3.63;;;;;;;23.87;72.62;101185.44;4988023;28;102487;-56
2021/08/04 02:44:15;;;;;;;3.60;3.30;;;;;;;23.86;72.40;101184.63;4981197;28;102944;-56
2021/08/04 02:46:43;;;;;;;4.03;3.72;;;;;;;23.86;72.43;101181.84;4988908;28;104545;-56
2021/08/04 02:49:13;;;;;;;4.13;3.73;;;;;;;23.86;72.38;101179.06;4994918;28;102807;-56
2021/08/04 02:51:41;;;;;;;3.60;3.30;;;;;;;23.86;72.56;101176.31;4987451;28;102669;-56
2021/08/04 02:54:12;;;;;;;3.57;3.27;;;;;;;23.85;72.58;101180.25;4990742;28;102549;-56
2021/08/04 02:56:39;;;;;;;3.75;3.45;;;;;;;23.86;72.62;101183.84;4988586;28;104064;-56
2021/08/04 02:59:06;;;;;;;3.93;3.63;;;;;;;23.86;72.38;101187.41;4987640;28;102725;-56
2021/08/04 03:01:33;;;;;;;4.72;3.45;;;;;;;23.86;72.52;101186.63;4990600;28;102322;-56
2021/08/04 03:04:00;;;;;;;4.30;3.85;;;;;;;23.86;72.45;101186.63;4986274;28;102248;-56
2021/08/04 03:06:28;;;;;;;3.70;3.40;;;;;;;23.87;72.41;101199.34;4987861;28;103738;-56
2021/08/04 03:08:55;;;;;;;3.67;3.37;;;;;;;23.85;72.46;101196.13;4988752;28;102103;-56
2021/08/04 03:11:22;;;;;;;4.90;3.80;;;;;;;23.84;72.64;101200.88;4991153;28;102451;-56
2021/08/04 03:13:48;;;;;;;4.05;3.75;;;;;;;23.85;72.54;101201.69;4988586;28;102553;-56
2021/08/04 03:16:16;;;;;;;4.15;3.75;;;;;;;23.85;72.43;101207.25;4989781;28;103939;-56
2021/08/04 03:18:42;;;;;;;4.32;3.92;;;;;;;23.86;72.72;101211.63;4987178;28;102393;-56
2021/08/04 03:21:09;;;;;;;4.35;3.95;;;;;;;23.86;72.29;101211.63;4983996;28;102198;-56
2021/08/04 03:23:39;;;;;;;4.00;3.70;;;;;;;23.86;72.63;101208.84;4988210;28;102618;-56
2021/08/04 03:26:07;;;;;;;4.67;3.73;;;;;;;23.85;72.61;101215.56;4987346;28;103794;-56
2021/08/04 03:28:34;;;;;;;4.13;3.77;;;;;;;23.85;72.62;101208.03;4985108;28;102525;-56
2021/08/04 03:31:01;;;;;;;4.25;3.90;;;;;;;23.85;72.71;101207.25;4986287;28;102467;-56
2021/08/04 03:33:28;;;;;;;3.90;3.60;;;;;;;23.85;72.66;101207.25;4988154;28;102358;-56
2021/08/04 03:35:54;;;;;;;6.82;3.92;;;;;;;23.84;72.75;101202.81;4965369;28;103870;-56
2021/08/04 03:38:21;;;;;;;4.18;3.88;;;;;;;23.85;72.72;101208.03;4982981;28;102323;-56
2021/08/04 03:40:49;;;;;;;4.00;3.60;;;;;;;23.86;72.54;101208.84;4989341;28;102259;-56
2021/08/04 03:43:16;;;;;;;4.03;3.72;;;;;;;23.85;72.62;101212.78;4987588;28;102700;-56
2021/08/04 03:45:43;;;;;;;3.78;3.47;;;;;;;23.85;72.62;101210.00;4985407;28;103934;-56
2021/08/04 03:48:09;;;;;;;3.70;3.40;;;;;;;23.86;72.99;101225.53;4983920;28;102196;-56
2021/08/04 03:50:37;;;;;;;3.97;3.60;;;;;;;23.85;72.47;101218.34;4987116;28;102907;-56
2021/08/04 03:53:04;;;;;;;3.78;3.47;;;;;;;23.86;72.79;101231.09;4984439;28;102366;-60
2021/08/04 03:55:31;;;;;;;4.38;3.25;;;;;;;23.86;72.93;101220.78;4983500;28;103932;-56
2021/08/04 03:57:59;;;;;;;4.15;3.40;;;;;;;23.87;73.25;101229.91;4986637;28;102518;-56
2021/08/04 04:00:25;;;;;;;3.60;3.30;;;;;;;23.88;73.24;101235.16;4987962;28;103543;-56
2021/08/04 04:02:52;;;;;;;3.80;3.50;;;;;;;23.89;73.11;101233.16;4990254;28;102571;-56
2021/08/04 04:05:18;;;;;;;3.60;3.30;;;;;;;23.89;73.39;101233.16;4984324;28;103713;-56
2021/08/04 04:07:45;;;;;;;3.90;3.60;;;;;;;23.90;73.37;101229.22;4985264;28;102408;-56
2021/08/04 04:10:12;;;;;;;3.97;3.58;;;;;;;23.90;73.14;101232.00;4982984;28;102665;-56
2021/08/04 04:12:39;;;;;;;3.60;3.30;;;;;;;23.91;72.98;101230.84;4988813;28;104113;-56
2021/08/04 04:15:09;;;;;;;3.83;3.53;;;;;;;23.90;73.53;101243.13;4987003;28;103845;-56
2021/08/04 04:17:35;;;;;;;3.80;3.50;;;;;;;23.89;73.28;101235.94;4985638;28;102376;-56
2021/08/04 04:20:02;;;;;;;3.85;3.47;;;;;;;23.89;73.39;101247.88;4982939;28;102089;-56
2021/08/04 04:22:29;;;;;;;4.28;3.92;;;;;;;23.89;73.27;101235.94;4989752;28;102574;-56
2021/08/04 04:24:56;;;;;;;4.10;3.80;;;;;;;23.89;73.28;101236.75;4986652;28;104159;-56
2021/08/04 04:27:23;;;;;;;4.25;3.90;;;;;;;23.90;73.55;101243.13;4980344;28;102616;-56
2021/08/04 04:29:50;;;;;;;4.03;3.72;;;;;;;23.90;73.32;101234.78;4988004;28;102539;-56
2021/08/04 04:32:18;;;;;;;3.83;3.53;;;;;;;23.90;73.19;101243.13;4983268;28;102270;-56
2021/08/04 04:34:44;;;;;;;5.03;3.97;;;;;;;23.89;73.50;101241.50;4984495;28;104043;-56
2021/08/04 04:37:12;;;;;;;4.20;3.80;;;;;;;23.89;73.58;101247.06;4983808;28;102357;-56
2021/08/04 04:39:39;;;;;;;4.47;3.38;;;;;;;23.89;73.69;101233.16;4980702;28;102500;-56
2021/08/04 04:42:06;;;;;;;4.03;3.63;;;;;;;23.90;73.62;101243.13;4995942;28;102433;-56
2021/08/04 04:44:32;;;;;;;3.85;3.55;;;;;;;23.89;73.62;101239.53;4986690;28;103921;-56
2021/08/04 04:46:59;;;;;;;4.00;3.70;;;;;;;23.90;73.58;101251.47;4987430;28;102307;-56
2021/08/04 04:49:26;;;;;;;4.22;3.83;;;;;;;23.89;73.34;101245.09;4987894;28;102620;-56
2021/08/04 04:51:54;;;;;;;;;;;;;;;23.90;73.31;101245.91;4985960;28;102379;-56
2021/08/04 04:54:21;;;;;;;5.75;3.53;;;;;;;23.89;73.61;101256.22;4980315;28;103944;-56
2021/08/04 04:56:47;;;;;;;3.97;3.67;;;;;;;23.90;73.34;101248.69;4985934;28;102450;-59
2021/08/04 04:59:14;;;;;;;4.20;3.80;;;;;;;23.90;73.44;101254.25;4979627;28;102997;-57
2021/08/04 05:01:41;;;;;;;4.43;4.03;;;;;;;23.90;73.51;101262.56;4983879;28;102250;-56
2021/08/04 05:04:08;;;;;;;5.45;4.30;;;;;;;23.92;73.75;101254.72;4985190;28;104041;-56
2021/08/04 05:06:36;;;;;;;4.82;4.05;;;;;;;23.93;73.57;101256.31;4986785;28;102201;-56
2021/08/04 05:09:03;;;;;;;;;;;;;;;23.93;73.20;101253.53;4981729;28;102520;-56
2021/08/04 05:11:30;;;;;;;4.82;4.32;;;;;;;23.96;73.18;101255.63;4984281;28;103709;-56
2021/08/04 05:13:57;;;;;;;;;;;;;;;23.96;73.16;101258.41;4983430;28;103724;-56
2021/08/04 05:16:24;;;;;;;5.15;4.47;;;;;;;23.96;73.28;101261.19;4986406;28;102145;-56
2021/08/04 05:18:51;;;;;;;5.20;4.70;;;;;;;23.97;73.32;101260.03;4988021;28;103423;-56
2021/08/04 05:21:18;;;;;;;5.18;4.68;;;;;;;23.98;73.54;101267.19;4974988;28;102692;-56
2021/08/04 05:23:48;;;;;;;4.85;4.43;;;;;;;23.98;73.61;101273.59;4984658;28;103627;-57
2021/08/04 05:26:15;;;;;;;5.40;4.60;;;;;;;23.99;73.59;101277.19;4985558;28;102560;-56
2021/08/04 05:28:42;;;;;;;5.43;4.93;;;;;;;24.00;73.30;101276.00;4986314;28;102855;-56
2021/08/04 05:31:09;;;;;;;5.20;4.70;;;;;;;24.00;73.27;101270.44;4986398;28;102290;-57
2021/08/04 05:33:36;;;;;;;5.10;4.60;;;;;;;24.02;73.46;101276.47;4983298;28;103951;-56
2021/08/04 05:36:04;;;;;;;6.05;5.10;;;;;;;24.04;73.35;101270.56;4979902;28;102343;-56
2021/08/04 05:38:32;;;;;;;5.63;4.38;;;;;;;24.05;73.39;101272.97;4985745;28;102531;-56
2021/08/04 05:41:00;;;;;;;7.85;5.30;;;;;;;24.06;73.40;101271.84;4986964;28;102470;-57
2021/08/04 05:43:27;;;;;;;6.55;4.80;;;;;;;24.08;73.06;101265.91;4981970;28;103841;-56
2021/08/04 05:45:54;;;;;;;5.10;4.60;;;;;;;24.09;73.13;101268.38;4988091;28;102988;-56
2021/08/04 05:48:20;;;;;;;5.25;4.53;;;;;;;24.10;73.15;101271.94;4982138;28;102512;-56
2021/08/04 05:50:47;;;;;;;5.80;4.70;;;;;;;24.11;73.24;101265.22;4983251;28;102491;-56
2021/08/04 05:53:15;;;;;;;5.97;4.72;;;;;;;24.12;73.00;101267.63;4985475;28;103804;-56
2021/08/04 05:55:41;;;;;;;7.85;4.47;;;;;;;24.13;73.15;101269.28;4985655;28;102412;-57
2021/08/04 05:58:10;;;;;;;5.03;4.53;;;;;;;24.14;73.17;101270.91;4986108;28;102504;-57
2021/08/04 06:00:36;;;;;;;5.05;4.55;;;;;;;24.16;73.07;101282.50;4982013;28;102209;-57
2021/08/04 06:03:03;;;;;;;5.68;4.50;;;;;;;24.18;73.16;101282.94;4978873;28;103968;-57
2021/08/04 06:05:30;;;;;;;4.90;4.50;;;;;;;24.19;73.08;101273.41;4979619;28;102472;-57
2021/08/04 06:07:56;;;;;;;4.90;4.35;;;;;;;24.21;73.18;101275.88;4985264;28;102586;-57
2021/08/04 06:10:23;;;;;;;4.78;4.22;;;;;;;24.22;72.97;101277.47;4981485;28;102456;-57
2021/08/04 06:12:50;;;;;;;6.30;4.47;;;;;;;24.24;73.01;101274.38;4983825;28;104099;-57
2021/08/04 06:15:18;;;;;;;4.90;4.40;;;;;;;24.25;72.99;101281.53;4983665;28;102578;-57
2021/08/04 06:17:55;;;;;;;6.22;4.55;;;;;;;24.26;72.64;101283.16;4986351;28;103053;-57
2021/08/04 06:20:22;;;;;;;4.28;3.88;;;;;;;24.26;72.68;101286.75;4982767;28;102280;-57
2021/08/04 07:44:27;;;;;;;11.02;4.35;;;;;;;24.88;66.77;101271.50;5070865;27;102487;-56
2021/08/04 07:46:54;;;;;;;;;;;;;;;24.92;66.70;101268.81;5069178;27;103749;-57
2021/08/04 07:49:20;;;;;;;10.13;4.85;;;;;;;24.97;66.90;101268.56;5059766;27;103930;-57
2021/08/04 07:51:48;;;;;;;9.52;4.30;;;;;;;25.09;65.86;101264.88;5053753;27;102091;-57
2021/08/04 07:54:15;;;;;;;9.57;4.45;;;;;;;25.12;66.34;101259.44;5062409;27;103311;-57
2021/08/04 07:56:41;;;;;;;10.38;4.63;;;;;;;25.24;65.67;101258.56;5065582;27;102458;-57
2021/08/04 07:59:08;;;;;;;10.05;4.38;;;;;;;25.28;65.21;101250.28;5059841;27;104985;-58
2021/08/04 08:01:35;;;;;;;9.98;4.53;;;;;;;25.32;65.47;101259.56;5055672;27;102761;-58
2021/08/04 08:04:02;;;;;;;7.37;3.73;;;;;;;25.40;65.07;101258.56;5056508;27;102489;-58
2021/08/04 08:06:29;;;;;;;9.55;4.20;;;;;;;25.44;64.80;101255.88;5058370;27;102271;-58
2021/08/04 08:08:55;;;;;;;5.10;3.75;;;;;;;25.52;64.78;101255.69;5057355;27;104011;-58
2021/08/04 08:11:22;;;;;;;7.80;4.00;;;;;;;25.54;64.23;101250.56;5056645;27;103452;-58
2021/08/04 08:13:49;;;;;;;8.45;3.80;;;;;;;25.58;64.62;101253.44;5059358;27;102181;-58
2021/08/04 08:16:17;;;;;;;13.07;4.05;;;;;;;25.59;64.50;101250.28;5062578;27;102940;-58
2021/08/04 08:18:45;;;;;;;10.15;4.18;;;;;;;25.65;64.27;101257.22;5059248;27;103728;-58
2021/08/04 08:21:11;;;;;;;8.40;3.95;;;;;;;25.69;64.10;101257.31;5054354;27;103828;-58
2021/08/04 08:23:38;;;;;;;9.70;4.28;;;;;;;25.75;63.80;101255.03;5057026;27;102308;-58
2021/08/04 08:26:05;;;;;;;7.57;3.70;;;;;;;25.78;63.69;101257.09;5057862;27;103602;-58
2021/08/04 08:28:31;;;;;;;5.78;3.25;;;;;;;25.85;63.20;101238.59;5055042;27;104386;-58
2021/08/04 08:30:58;;;;;;;8.52;3.90;;;;;;;25.83;63.74;101240.94;5065759;27;103262;-58
2021/08/04 08:33:25;;;;;;;7.45;3.90;;;;;;;25.89;63.23;101241.47;5058940;27;102246;-59
2021/08/04 08:35:53;;;;;;;11.73;4.10;;;;;;;25.98;62.55;101236.50;5049644;27;102492;-58
2021/08/04 08:38:19;;;;;;;7.70;3.42;;;;;;;25.97;62.74;101237.69;5049698;27;103898;-59
2021/08/04 08:40:46;;;;;;;14.00;3.88;;;;;;;25.94;63.00;101232.84;5053794;27;103151;-58
2021/08/04 08:43:16;;;;;;;8.37;4.67;;;;;;;25.93;63.12;101236.78;5051095;27;102417;-59
2021/08/04 08:45:43;;;;;;;7.32;4.10;;;;;;;25.96;62.81;101240.81;5044946;27;102663;-59
2021/08/04 08:48:14;;;;;;;7.30;3.85;;;;;;;25.96;62.96;101247.19;5042760;27;103450;-58
2021/08/04 08:50:42;;;;;;;7.35;3.83;;;;;;;26.02;62.44;101234.59;5046052;27;103315;-58
2021/08/04 08:53:10;;;;;;;;;;;;;;;26.08;62.16;101238.72;5047553;27;102714;-59
2021/08/04 08:55:38;;;;;;;7.38;3.65;;;;;;;26.12;62.12;101245.19;5046509;27;102738;-58
2021/08/04 08:58:04;;;;;;;9.30;3.60;;;;;;;26.12;62.34;101249.97;5049125;27;103974;-59
2021/08/04 09:00:34;;;;;;;7.47;3.80;;;;;;;26.16;61.81;101234.13;5047694;27;102688;-59
2021/08/04 09:03:01;;;;;;;6.97;3.90;;;;;;;26.20;61.94;101245.34;5046782;27;102570;-59
2021/08/04 09:05:46;;;;;;;8.20;4.60;;;;;;;26.24;61.80;101240.66;5044586;27;105844;-59
2021/08/04 09:08:23;;;;;;;12.20;3.80;;;;;;;26.25;61.84;101234.69;5043879;27;103935;-59
2021/08/04 09:10:50;;;;;;;9.88;4.07;;;;;;;26.24;61.81;101243.44;5045326;27;102507;-59
2021/08/04 09:13:29;;;;;;;9.45;3.53;;;;;;;26.23;61.81;101237.06;5050435;27;102605;-59
2021/08/04 09:16:03;;;;;;;10.85;3.90;;;;;;;26.30;61.43;101228.03;5047842;27;102653;-59
2021/08/04 09:18:38;;;;;;;8.63;3.55;;;;;;;26.33;61.48;101232.88;5044135;27;103218;-59
2021/08/04 09:21:05;;;;;;;6.70;3.45;;;;;;;26.31;61.26;101238.81;5045696;27;102434;-59
2021/08/04 09:23:40;;;;;;;8.93;3.38;;;;;;;26.31;61.52;101235.22;5040483;27;102309;-60
2021/08/04 09:26:07;;;;;;;7.60;3.65;;;;;;;26.34;61.44;101234.50;5045929;27;103263;-60
2021/08/04 09:28:50;;;;;;;5.82;3.33;;;;;;;26.38;60.88;101218.63;5042468;27;103791;-57
2021/08/04 09:31:17;;;;;;;9.15;3.50;;;;;;;26.38;60.95;101213.06;5039859;27;102344;-58
2021/08/04 09:33:46;;;;;;;4.55;3.00;;;;;;;26.42;60.84;101213.94;5044487;27;102117;-58
2021/08/04 10:33:08;;;;;;;8.90;3.28;;;;;;;26.22;62.00;101187.19;5038641;27;102518;-58
2021/08/04 10:35:36;;;;;;;9.60;3.92;;;;;;;26.25;61.92;101181.69;5040616;27;102819;-57
2021/08/04 10:38:04;;;;;;;5.07;2.90;;;;;;;26.27;61.64;101189.72;5032744;27;104034;-58
2021/08/04 10:40:31;;;;;;;8.88;3.13;;;;;;;26.31;61.04;101174.66;5039742;27;102556;-58
2021/08/04 10:42:58;;;;;;;4.57;3.05;;;;;;;26.34;60.72;101181.47;5043209;27;102334;-59
2021/08/04 10:45:32;;;;;;;5.90;3.65;;;;;;;26.38;60.59;101173.97;5032384;27;102310;-58
2021/08/04 10:48:24;;;;;;;6.70;2.75;;;;;;;26.44;60.38;101171.72;5036837;27;104246;-58
2021/08/04 10:51:13;;;;;;;4.75;2.88;;;;;;;26.46;60.17;101175.75;5040263;27;102500;-58
2021/08/04 10:54:15;;;;;;;4.90;2.65;;;;;;;26.47;60.16;101166.25;5036100;27;102786;-58
2021/08/04 10:57:07;;;;;;;9.32;2.70;;;;;;;26.55;59.79;101161.59;5030482;27;102684;-59
2021/08/04 10:59:36;;;;;;;4.38;2.67;;;;;;;26.58;60.01;101158.88;5037543;27;104021;-59
2021/08/04 11:02:28;;;;;;;4.45;2.83;;;;;;;26.64;59.38;101158.56;5042539;27;102724;-59
2021/08/04 11:04:56;;;;;;;7.90;3.03;;;;;;;26.63;59.87;101168.91;5039273;27;102514;-59
2021/08/04 11:07:24;;;;;;;5.20;2.58;;;;;;;26.68;59.23;101156.63;5031572;27;102292;-59
2021/08/04 11:09:59;;;;;;;4.07;2.42;;;;;;;26.69;59.44;101156.28;5034288;27;104314;-59
2021/08/04 11:12:45;;;;;;;4.15;2.55;;;;;;;26.74;59.30;101155.16;5042016;27;102608;-59
2021/08/04 11:15:30;;;;;;;5.05;2.42;;;;;;;26.78;59.13;101165.22;5043228;27;102525;-59
2021/08/04 11:18:08;;;;;;;5.18;2.88;;;;;;;26.80;59.32;101159.25;5039425;27;102105;-59
2021/08/04 11:20:40;;;;;;;;;;;;;;;26.84;59.03;101158.16;5041121;27;104100;-61
2021/08/04 11:23:08;;;;;;;3.72;2.67;;;;;;;26.81;59.28;101166.47;5035424;27;102547;-59
2021/08/04 11:25:39;;;;;;;5.78;2.50;;;;;;;26.84;58.94;101151.75;5031326;27;102624;-59
2021/08/04 11:28:12;;;;;;;7.55;2.75;;;;;;;26.90;58.87;101155.03;5026898;27;103370;-59
2021/08/04 11:30:42;;;;;;;2.83;2.47;;;;;;;26.93;58.22;101141.13;5029033;27;104306;-59
2021/08/04 11:33:39;;;;;;;6.07;2.47;;;;;;;26.91;58.99;101151.88;5006765;27;102045;-59
2021/08/04 11:36:26;;;;;;;4.93;2.50;;;;;;;26.89;59.05;101137.47;4955109;28;102704;-59
2021/08/04 11:39:01;;;;;;;4.07;2.77;;;;;;;26.96;58.45;101132.00;4997922;28;102547;-60
2021/08/04 11:41:37;;;;;;;6.57;2.70;;;;;;;26.99;58.26;101131.28;5004185;28;103698;-59
2021/08/04 11:44:18;;;;;;;4.72;2.50;;;;;;;26.98;58.67;101129.66;4999065;28;102158;-59
2021/08/04 11:46:48;;;;;;;3.35;2.60;;;;;;;27.01;58.51;101131.72;4998537;28;102080;-59
2021/08/04 16:01:40;;;;;;;5.05;4.03;;;;;;;25.02;58.51;101026.03;4999479;28;102140;-59
2021/08/04 16:04:07;;;;;;;6.90;3.90;;;;;;;25.02;59.08;101026.03;5000740;28;102252;-59
2021/08/04 16:06:34;;;;;;;4.25;3.70;;;;;;;25.02;59.46;101014.91;4999899;28;103748;-58
2021/08/04 16:09:01;;;;;;;4.43;3.83;;;;;;;25.02;59.42;101014.91;4999853;28;102192;-58
2021/08/04 16:11:28;;;;;;;4.75;3.80;;;;;;;25.03;59.69;101016.53;5002543;28;102311;-58
2021/08/04 16:13:55;;;;;;;4.43;3.20;;;;;;;25.03;60.04;101010.97;5005572;28;102140;-59
2021/08/04 16:16:22;;;;;;;5.32;4.10;;;;;;;25.01;60.26;101007.72;4993054;28;104145;-58
2021/08/04 16:18:51;;;;;;;7.03;3.60;;;;;;;25.02;60.38;100998.19;4999224;28;102084;-59
2021/08/04 16:21:18;;;;;;;5.45;3.70;;;;;;;25.02;60.54;101012.09;5003492;28;103125;-59
2021/08/04 16:23:45;;;;;;;4.90;3.53;;;;;;;25.01;60.46;101007.72;4999227;28;102396;-59
2021/08/04 16:26:12;;;;;;;4.40;3.80;;;;;;;25.02;60.92;101000.16;5000251;28;103922;-59
2021/08/04 16:28:39;;;;;;;5.25;4.15;;;;;;;25.02;60.94;101011.31;5000598;28;102177;-59
2021/08/04 16:31:06;;;;;;;9.38;4.53;;;;;;;24.99;61.38;101015.63;4995946;28;102405;-58
2021/08/04 16:33:33;;;;;;;6.60;4.28;;;;;;;24.97;61.45;101012.41;5002558;28;102273;-58
2021/08/04 16:36:01;;;;;;;5.85;4.80;;;;;;;24.98;61.79;101014.00;4997533;28;104203;-59
2021/08/04 16:38:28;;;;;;;7.55;4.85;;;;;;;24.97;61.90;101006.84;4995795;28;102290;-59
2021/08/04 16:40:54;;;;;;;7.60;4.45;;;;;;;24.97;62.02;101006.84;5003156;28;102412;-59
2021/08/04 16:43:21;;;;;;;6.25;4.63;;;;;;;24.98;62.25;101013.22;4999492;28;102376;-59
2021/08/04 16:45:47;;;;;;;6.55;4.18;;;;;;;24.97;62.49;101017.97;4996533;28;103794;-59
2021/08/04 16:48:15;;;;;;;5.43;4.93;;;;;;;24.97;62.53;101020.75;4994771;28;102101;-59
2021/08/04 16:50:42;;;;;;;8.27;4.80;;;;;;;24.94;62.69;101024.25;4991809;28;102648;-59
2021/08/04 16:53:10;;;;;;;6.65;4.40;;;;;;;24.96;62.75;101026.69;4989595;28;102590;-59
2021/08/04 16:55:37;;;;;;;4.75;4.30;;;;;;;24.97;62.63;101034.69;4986498;28;103931;-59
2021/08/04 16:58:08;;;;;;;8.13;4.57;;;;;;;24.93;62.91;101037.38;4991600;28;102696;-59
2021/08/04 17:00:40;;;;;;;8.63;4.78;;;;;;;24.95;63.33;101042.56;4988623;28;102527;-60
2021/08/04 17:03:11;;;;;;;7.70;5.40;;;;;;;24.93;63.39;101039.34;4985850;28;105318;-60
2021/08/04 17:05:40;;;;;;;14.85;5.80;;;;;;;24.93;63.62;101056.06;4997671;28;103680;-58
2021/08/04 17:08:08;;;;;;;9.85;6.05;;;;;;;24.93;63.37;101050.50;4984986;28;102054;-58
2021/08/04 17:10:36;;;;;;;13.70;6.18;;;;;;;24.91;64.20;101063.94;4973517;28;102339;-59
2021/08/04 17:13:04;;;;;;;11.15;7.03;;;;;;;24.90;64.09;101054.78;4978110;28;103251;-59
2021/08/04 17:15:30;;;;;;;9.98;7.80;;;;;;;24.91;64.07;101041.69;4973948;28;103510;-58
2021/08/04 17:17:58;;;;;;;17.33;9.43;;;;;;;24.91;63.98;101041.69;4977835;28;102504;-59
2021/08/04 17:20:26;;;;;;;12.57;9.90;;;;;;;24.93;64.03;101047.72;4986924;28;102658;-59
2021/08/04 17:22:54;;;;;;;14.95;11.95;;;;;;;24.92;64.60;101060.03;4987950;28;102899;-58
2021/08/04 17:25:22;;;;;;;16.57;14.83;;;;;;;24.92;64.21;101054.44;4994708;28;103743;-58
2021/08/04 17:27:51;;;;;;;28.88;21.23;;;;;;;24.93;64.40;101064.41;4981669;28;103113;-58
2021/08/04 17:30:19;;;;;;;37.08;28.42;;;;;;;24.91;64.63;101066.72;4982197;28;102277;-59
2021/08/04 17:32:45;;;;;;;28.57;22.50;;;;;;;24.91;65.07;101066.72;4980445;28;102615;-58
2021/08/04 17:35:14;;;;;;;21.50;14.75;;;;;;;24.89;65.07;101066.31;4983752;28;103787;-58
2021/08/04 17:37:41;;;;;;;17.48;11.68;;;;;;;24.89;65.33;101066.31;4978465;28;102418;-59
2021/08/04 17:40:09;;;;;;;21.92;10.35;;;;;;;24.88;65.53;101071.06;4989394;28;102745;-58
2021/08/04 17:42:35;;;;;;;14.10;9.52;;;;;;;24.89;65.14;101066.31;4982544;28;102267;-58
2021/08/04 17:45:04;;;;;;;14.82;8.68;;;;;;;24.87;65.71;101057.50;4981998;28;104090;-58
2021/08/04 17:47:38;;;;;;;15.57;8.73;;;;;;;24.87;65.80;101057.50;4983363;28;102669;-59
2021/08/04 17:50:06;;;;;;;21.50;9.02;;;;;;;24.84;65.90;101058.22;4974960;28;102606;-59
2021/08/04 17:52:32;;;;;;;11.88;9.18;;;;;;;24.84;65.48;101050.66;4978966;28;102559;-58
2021/08/04 17:54:59;;;;;;;20.00;9.30;;;;;;;24.83;65.90;101039.91;4972064;28;103950;-58